createdAt,value
2019-03-01T00:02:22.202Z,100374.84
2019-03-01T00:05:12.854Z,100381.61
2019-03-01T00:08:07.874Z,100373.16
2019-03-01T00:11:26.719Z,100369.09
2019-03-01T00:14:16.027Z,100366.95
2019-03-01T00:17:02.789Z,100365.27
2019-03-01T00:19:54.131Z,100362.36
2019-03-01T00:22:38.618Z,100362.66
2019-03-01T00:25:47.438Z,100363.27
2019-03-01T00:28:30.927Z,100367.67
2019-03-01T00:31:50.517Z,100364.69
2019-03-01T00:34:46.289Z,100357.83
2019-03-01T00:37:48.731Z,100352.95
2019-03-01T00:40:28.525Z,100351.05
2019-03-01T00:43:33.029Z,100362.13
2019-03-01T00:46:01.255Z,100352.44
2019-03-01T00:48:30.420Z,100347.60
2019-03-01T00:51:00.744Z,100350.55
2019-03-01T00:53:29.900Z,100348.81
2019-03-01T00:55:58.792Z,100343.95
2019-03-01T00:58:29.754Z,100335.89
2019-03-01T01:00:58.973Z,100329.13
2019-03-01T01:03:28.029Z,100316.64
2019-03-01T01:05:57.126Z,100316.14
2019-03-01T01:08:26.265Z,100316.41
2019-03-01T01:10:57.304Z,100307.95
2019-03-01T01:13:28.019Z,100306.62
2019-03-01T01:15:57.089Z,100300.74
2019-03-01T01:18:27.548Z,100293.88
2019-03-01T01:20:56.696Z,100297.80
2019-03-01T01:23:25.664Z,100295.02
2019-03-01T01:25:56.470Z,100293.30
2019-03-01T01:28:25.805Z,100290.52
2019-03-01T01:30:58.142Z,100293.16
2019-03-01T01:33:27.039Z,100281.53
2019-03-01T01:35:56.173Z,100283.05
2019-03-01T01:38:29.479Z,100285.76
2019-03-01T01:40:59.751Z,100280.38
2019-03-01T01:43:30.124Z,100277.57
2019-03-01T01:46:01.371Z,100283.52
2019-03-01T01:48:33.384Z,100285.69
2019-03-01T01:51:02.124Z,100282.65
2019-03-01T01:53:31.339Z,100286.50
2019-03-01T01:56:00.450Z,100290.17
2019-03-01T01:58:29.689Z,100290.47
2019-03-01T02:00:58.542Z,100290.91
2019-03-01T02:03:28.588Z,100289.66
2019-03-01T02:05:57.722Z,100295.47
2019-03-01T02:08:26.752Z,100292.84
2019-03-01T02:10:55.866Z,100294.78
2019-03-01T02:13:25.697Z,100290.42
2019-03-01T02:15:54.471Z,100291.52
2019-03-01T02:18:25.743Z,100289.32
2019-03-01T02:20:54.653Z,100284.64
2019-03-01T02:23:23.824Z,100269.98
2019-03-01T02:25:52.806Z,100265.33
2019-03-01T02:28:21.966Z,100267.77
2019-03-01T02:30:51.093Z,100261.68
2019-03-01T02:33:20.323Z,100261.20
2019-03-01T02:35:49.136Z,100261.64
2019-03-01T02:38:19.577Z,100260.35
2019-03-01T02:40:48.564Z,100265.84
2019-03-01T02:43:17.299Z,100254.95
2019-03-01T02:45:46.469Z,100251.84
2019-03-01T02:48:16.147Z,100254.47
2019-03-01T02:50:45.276Z,100251.16
2019-03-01T02:53:14.013Z,100252.04
2019-03-01T02:55:42.753Z,100255.52
2019-03-01T02:58:12.170Z,100247.88
2019-03-01T03:00:41.060Z,100246.77
2019-03-01T03:03:10.231Z,100238.31
2019-03-01T03:05:58.661Z,100236.72
2019-03-01T03:08:27.432Z,100231.92
2019-03-01T03:10:57.835Z,100230.60
2019-03-01T03:13:28.901Z,100234.97
2019-03-01T03:16:00.352Z,100228.98
2019-03-01T03:18:29.820Z,100235.09
2019-03-01T03:20:58.880Z,100223.36
2019-03-01T03:23:28.082Z,100227.31
2019-03-01T03:26:00.358Z,100226.73
2019-03-01T03:28:29.799Z,100229.16
2019-03-01T03:30:58.948Z,100225.48
2019-03-01T03:33:31.027Z,100229.03
2019-03-01T03:35:59.912Z,100216.11
2019-03-01T03:38:31.699Z,100215.70
2019-03-01T03:41:00.599Z,100223.41
2019-03-01T03:43:29.497Z,100218.95
2019-03-01T03:45:58.554Z,100222.09
2019-03-01T03:48:29.705Z,100218.36
2019-03-01T03:50:58.607Z,100216.97
2019-03-01T03:53:30.212Z,100220.94
2019-03-01T03:55:59.010Z,100218.73
2019-03-01T03:58:29.483Z,100220.39
2019-03-01T04:01:00.194Z,100224.96
2019-03-01T04:03:31.218Z,100220.05
2019-03-01T04:06:04.751Z,100213.73
2019-03-01T04:08:33.908Z,100213.87
2019-03-01T04:11:02.733Z,100218.13
2019-03-01T04:13:33.591Z,100216.04
2019-03-01T04:16:02.891Z,100215.97
2019-03-01T04:18:32.085Z,100206.00
2019-03-01T04:21:01.028Z,100205.27
2019-03-01T04:23:30.353Z,100193.55
2019-03-01T04:25:59.028Z,100194.72
2019-03-01T04:28:27.951Z,100195.41
2019-03-01T04:30:56.880Z,100200.27
2019-03-01T04:33:27.878Z,100197.25
2019-03-01T04:35:56.658Z,100197.25
2019-03-01T04:38:25.444Z,100197.69
2019-03-01T04:40:55.146Z,100202.64
2019-03-01T04:43:24.074Z,100203.89
2019-03-01T04:45:53.002Z,100199.63
2019-03-01T04:48:21.924Z,100194.09
2019-03-01T04:50:52.582Z,100200.47
2019-03-01T04:53:21.290Z,100202.52
2019-03-01T04:55:50.410Z,100201.05
2019-03-01T04:58:19.260Z,100199.40
2019-03-01T05:00:48.171Z,100197.71
2019-03-01T05:03:17.067Z,100199.14
2019-03-01T05:05:45.970Z,100204.38
2019-03-01T05:08:14.841Z,100198.15
2019-03-01T05:10:45.435Z,100202.79
2019-03-01T05:13:14.212Z,100197.05
2019-03-01T05:15:43.352Z,100195.72
2019-03-01T05:18:12.359Z,100202.92
2019-03-01T05:20:41.139Z,100203.52
2019-03-01T05:23:09.934Z,100198.05
2019-03-01T05:25:39.407Z,100198.82
2019-03-01T05:28:08.235Z,100198.96
2019-03-01T05:30:38.707Z,100199.22
2019-03-01T05:33:07.526Z,100200.14
2019-03-01T05:35:36.828Z,100210.95
2019-03-01T05:38:09.040Z,100203.30
2019-03-01T05:40:38.521Z,100208.31
2019-03-01T05:43:07.586Z,100212.68
2019-03-01T05:45:36.391Z,100207.52
2019-03-01T05:48:05.203Z,100210.42
2019-03-01T05:50:35.605Z,100211.27
2019-03-01T05:53:06.500Z,100214.31
2019-03-01T05:55:36.836Z,100209.58
2019-03-01T05:58:27.788Z,100210.56
2019-03-01T06:00:58.693Z,100212.95
2019-03-01T06:04:14.026Z,100209.77
2019-03-01T06:07:04.727Z,100208.19
2019-03-01T06:10:11.250Z,100207.45
2019-03-01T06:13:40.812Z,100211.23
2019-03-01T06:16:34.286Z,100209.25
2019-03-01T06:19:40.493Z,100213.61
2019-03-01T06:22:40.673Z,100211.89
2019-03-01T06:25:37.326Z,100209.42
2019-03-01T06:29:02.951Z,100207.41
2019-03-01T06:31:57.968Z,100208.58
2019-03-01T06:34:49.540Z,100215.58
2019-03-01T06:37:57.870Z,100212.14
2019-03-01T06:41:23.169Z,100218.36
2019-03-01T06:44:16.958Z,100212.06
2019-03-01T06:47:02.907Z,100216.36
2019-03-01T06:49:51.997Z,100214.59
2019-03-01T06:52:22.342Z,100214.39
2019-03-01T06:54:51.144Z,100220.45
2019-03-01T06:57:20.012Z,100217.31
2019-03-01T06:59:48.984Z,100226.91
2019-03-01T07:02:23.099Z,100213.72
2019-03-01T07:04:53.399Z,100211.62
2019-03-01T07:07:22.297Z,100221.13
2019-03-01T07:09:51.012Z,100223.88
2019-03-01T07:12:22.808Z,100228.83
2019-03-01T07:14:53.528Z,100234.23
2019-03-01T07:17:25.242Z,100227.56
2019-03-01T07:19:54.342Z,100220.05
2019-03-01T07:22:24.713Z,100227.97
2019-03-01T07:24:53.346Z,100224.09
2019-03-01T07:27:22.270Z,100222.55
2019-03-01T07:29:54.706Z,100230.33
2019-03-01T07:32:23.779Z,100224.75
2019-03-01T07:34:54.062Z,100232.78
2019-03-01T07:37:22.684Z,100237.48
2019-03-01T07:39:51.772Z,100241.37
2019-03-01T07:42:23.801Z,100243.34
2019-03-01T07:44:54.076Z,100241.14
2019-03-01T07:47:28.157Z,100254.17
2019-03-01T07:49:58.305Z,100253.36
2019-03-01T07:52:31.944Z,100257.73
2019-03-01T07:55:01.454Z,100252.45
2019-03-01T07:57:34.715Z,100255.09
2019-03-01T08:00:03.799Z,100259.05
2019-03-01T08:02:35.971Z,100262.72
2019-03-01T08:05:05.098Z,100265.14
2019-03-01T08:07:35.112Z,100263.02
2019-03-01T08:10:06.899Z,100266.06
2019-03-01T08:12:42.288Z,100273.84
2019-03-01T08:15:12.507Z,100271.20
2019-03-01T08:17:41.785Z,100270.02
2019-03-01T08:20:12.737Z,100273.11
2019-03-01T08:22:48.524Z,100270.42
2019-03-01T08:25:22.644Z,100270.35
2019-03-01T08:27:49.502Z,100279.52
2019-03-01T08:30:18.194Z,100282.17
2019-03-01T08:32:49.936Z,100283.09
2019-03-01T08:35:18.572Z,100287.05
2019-03-01T08:37:49.758Z,100283.74
2019-03-01T08:40:18.222Z,100276.26
2019-03-01T08:42:54.642Z,100282.53
2019-03-01T08:45:29.751Z,100293.88
2019-03-01T08:48:00.911Z,100290.71
2019-03-01T08:50:33.223Z,100293.28
2019-03-01T08:53:01.979Z,100290.41
2019-03-01T08:55:30.966Z,100297.72
2019-03-01T08:58:03.426Z,100300.73
2019-03-01T09:00:34.751Z,100302.13
2019-03-01T09:03:11.733Z,100300.77
2019-03-01T09:05:40.346Z,100306.23
2019-03-01T09:08:09.382Z,100309.10
2019-03-01T09:10:40.014Z,100314.98
2019-03-01T09:13:14.235Z,100309.50
2019-03-01T09:15:46.170Z,100310.28
2019-03-01T09:18:14.645Z,100314.06
2019-03-01T09:20:44.727Z,100312.08
2019-03-01T09:23:24.235Z,100312.66
2019-03-01T09:25:58.669Z,100313.77
2019-03-01T09:28:32.839Z,100307.78
2019-03-01T09:31:06.391Z,100307.48
2019-03-01T09:33:37.267Z,100311.45
2019-03-01T09:36:14.423Z,100311.86
2019-03-01T09:38:45.225Z,100309.98
2019-03-01T09:41:15.781Z,100303.27
2019-03-01T09:43:45.884Z,100304.54
2019-03-01T09:46:16.149Z,100313.53
2019-03-01T09:48:45.677Z,100316.96
2019-03-01T09:51:17.866Z,100312.53
2019-03-01T09:53:50.629Z,100314.36
2019-03-01T09:56:21.282Z,100313.77
2019-03-01T09:58:52.010Z,100319.56
2019-03-01T10:01:22.459Z,100324.09
2019-03-01T10:03:52.347Z,100321.45
2019-03-01T10:06:21.382Z,100324.41
2019-03-01T10:08:51.056Z,100323.69
2019-03-01T10:11:20.454Z,100331.60
2019-03-01T10:13:50.948Z,100333.22
2019-03-01T10:16:21.130Z,100330.95
2019-03-01T10:18:50.233Z,100335.84
2019-03-01T10:21:19.435Z,100330.20
2019-03-01T10:23:49.800Z,100331.38
2019-03-01T10:26:18.633Z,100340.71
2019-03-01T10:28:49.155Z,100335.42
2019-03-01T10:31:18.067Z,100337.39
2019-03-01T10:33:46.918Z,100337.24
2019-03-01T10:36:19.654Z,100342.77
2019-03-01T10:38:50.660Z,100348.95
2019-03-01T10:41:19.454Z,100358.08
2019-03-01T10:43:49.108Z,100369.48
2019-03-01T10:46:19.365Z,100368.91
2019-03-01T10:48:53.457Z,100374.03
2019-03-01T10:51:23.720Z,100379.53
2019-03-01T10:53:55.700Z,100380.38
2019-03-01T10:56:24.643Z,100385.09
2019-03-01T10:58:53.694Z,100380.08
2019-03-01T11:01:22.310Z,100396.56
2019-03-01T11:03:51.465Z,100395.90
2019-03-01T11:06:21.720Z,100401.21
2019-03-01T11:08:51.082Z,100398.37
2019-03-01T11:11:22.766Z,100405.47
2019-03-01T11:13:51.325Z,100408.09
2019-03-01T11:16:20.220Z,100412.12
2019-03-01T11:18:49.331Z,100411.21
2019-03-01T11:21:18.255Z,100421.48
2019-03-01T11:23:49.070Z,100424.34
2019-03-01T11:26:19.668Z,100433.14
2019-03-01T11:28:48.677Z,100439.27
2019-03-01T11:31:18.829Z,100435.94
2019-03-01T11:33:47.452Z,100437.44
2019-03-01T11:36:16.778Z,100450.21
2019-03-01T11:38:45.510Z,100446.50
2019-03-01T11:41:14.412Z,100443.98
2019-03-01T11:43:46.426Z,100447.95
2019-03-01T11:46:16.303Z,100446.69
2019-03-01T11:48:47.565Z,100454.06
2019-03-01T11:51:18.139Z,100460.25
2019-03-01T11:53:46.750Z,100464.05
2019-03-01T11:56:15.319Z,100467.05
2019-03-01T11:58:44.245Z,100472.70
2019-03-01T12:01:17.267Z,100470.07
2019-03-01T12:03:43.936Z,100476.02
2019-03-01T12:06:12.525Z,100475.22
2019-03-01T12:08:44.627Z,100473.41
2019-03-01T12:11:13.372Z,100478.41
2019-03-01T12:13:43.657Z,100485.70
2019-03-01T12:16:12.223Z,100490.60
2019-03-01T12:18:41.674Z,100496.43
2019-03-01T12:21:10.246Z,100491.22
2019-03-01T12:23:40.969Z,100489.63
2019-03-01T12:26:10.076Z,100492.15
2019-03-01T12:28:38.960Z,100487.67
2019-03-01T12:31:07.853Z,100484.77
2019-03-01T12:33:36.630Z,100497.88
2019-03-01T12:36:08.291Z,100503.27
2019-03-01T12:38:37.065Z,100508.55
2019-03-01T12:41:07.707Z,100514.72
2019-03-01T12:43:36.492Z,100516.52
2019-03-01T12:46:05.085Z,100516.59
2019-03-01T12:48:35.331Z,100518.80
2019-03-01T12:51:03.904Z,100523.09
2019-03-01T12:53:34.583Z,100530.11
2019-03-01T12:56:03.168Z,100530.11
2019-03-01T12:58:31.767Z,100538.91
2019-03-01T13:01:02.143Z,100543.12
2019-03-01T13:03:30.792Z,100546.80
2019-03-01T13:06:03.884Z,100551.90
2019-03-01T13:08:31.906Z,100555.53
2019-03-01T13:11:03.581Z,100557.75
2019-03-01T13:13:34.669Z,100563.84
2019-03-01T13:16:06.585Z,100564.70
2019-03-01T13:18:35.477Z,100565.90
2019-03-01T13:21:04.146Z,100571.11
2019-03-01T13:23:32.710Z,100570.53
2019-03-01T13:26:02.949Z,100569.06
2019-03-01T13:28:31.657Z,100560.59
2019-03-01T13:31:01.630Z,100573.38
2019-03-01T13:33:30.319Z,100571.22
2019-03-01T13:36:00.051Z,100569.65
2019-03-01T13:38:34.026Z,100564.95
2019-03-01T13:41:04.105Z,100569.95
2019-03-01T13:43:33.335Z,100567.31
2019-03-01T13:46:04.358Z,100574.16
2019-03-01T13:48:38.012Z,100580.23
2019-03-01T13:51:05.812Z,100580.99
2019-03-01T13:53:48.573Z,100589.23
2019-03-01T13:56:10.785Z,100586.19
2019-03-01T13:58:41.839Z,100593.72
2019-03-01T14:01:10.750Z,100595.97
2019-03-01T14:03:41.210Z,100588.19
2019-03-01T14:06:15.781Z,100596.17
2019-03-01T14:08:44.329Z,100594.02
2019-03-01T14:11:18.619Z,100597.86
2019-03-01T14:13:47.743Z,100599.09
2019-03-01T14:16:17.037Z,100606.80
2019-03-01T14:18:46.602Z,100606.23
2019-03-01T14:21:17.306Z,100607.13
2019-03-01T14:23:50.776Z,100614.17
2019-03-01T14:26:21.291Z,100607.30
2019-03-01T14:28:49.862Z,100615.14
2019-03-01T14:31:18.455Z,100611.67
2019-03-01T14:33:47.582Z,100612.55
2019-03-01T14:36:16.325Z,100619.02
2019-03-01T14:38:44.933Z,100620.84
2019-03-01T14:41:13.675Z,100620.77
2019-03-01T14:43:43.822Z,100623.81
2019-03-01T14:46:20.914Z,100626.70
2019-03-01T14:48:49.999Z,100633.22
2019-03-01T14:51:18.580Z,100636.02
2019-03-01T14:53:47.483Z,100643.81
2019-03-01T14:56:21.544Z,100647.11
2019-03-01T14:58:55.938Z,100644.66
2019-03-01T15:01:31.258Z,100640.55
2019-03-01T15:04:02.940Z,100647.36
2019-03-01T15:06:31.516Z,100647.70
2019-03-01T15:09:00.084Z,100649.73
2019-03-01T15:11:28.887Z,100652.03
2019-03-01T15:13:59.711Z,100651.48
2019-03-01T15:16:31.978Z,100665.42
2019-03-01T15:19:04.755Z,100661.73
2019-03-01T15:21:34.043Z,100665.50
2019-03-01T15:24:01.979Z,100670.83
2019-03-01T15:26:33.694Z,100671.39
2019-03-01T15:29:02.415Z,100663.55
2019-03-01T15:31:34.026Z,100667.49
2019-03-01T15:34:04.499Z,100663.22
2019-03-01T15:36:33.187Z,100667.58
2019-03-01T15:39:01.932Z,100668.80
2019-03-01T15:41:30.929Z,100678.02
2019-03-01T15:44:01.685Z,100684.59
2019-03-01T15:46:34.647Z,100691.31
2019-03-01T15:49:05.164Z,100696.40
2019-03-01T15:51:34.627Z,100696.75
2019-03-01T15:54:04.667Z,100699.19
2019-03-01T15:56:33.611Z,100694.94
2019-03-01T15:59:02.230Z,100696.33
2019-03-01T16:01:31.119Z,100699.48
2019-03-01T16:04:01.012Z,100698.48
2019-03-01T16:06:31.156Z,100701.11
2019-03-01T16:09:00.139Z,100698.45
2019-03-01T16:11:31.075Z,100704.73
2019-03-01T16:14:01.196Z,100704.63
2019-03-01T16:16:29.979Z,100705.50
2019-03-01T16:19:02.212Z,100706.97
2019-03-01T16:21:36.677Z,100707.35
2019-03-01T16:24:08.081Z,100695.73
2019-03-01T16:26:38.008Z,100708.03
2019-03-01T16:29:35.587Z,100707.78
2019-03-01T16:32:50.785Z,100721.25
2019-03-01T16:35:53.621Z,100730.08
2019-03-01T16:39:07.384Z,100738.73
2019-03-01T16:42:09.614Z,100747.17
2019-03-01T16:45:10.413Z,100751.64
2019-03-01T16:48:13.558Z,100755.22
2019-03-01T16:53:45.726Z,100768.44
2019-03-01T16:56:14.305Z,100777.16
2019-03-01T16:58:43.045Z,100776.20
2019-03-01T17:01:14.756Z,100778.36
2019-03-01T17:03:43.929Z,100774.89
2019-03-01T17:06:13.777Z,100780.88
2019-03-01T17:08:47.453Z,100791.38
2019-03-01T17:11:16.056Z,100796.13
2019-03-01T17:13:44.618Z,100804.50
2019-03-01T17:16:13.216Z,100814.63
2019-03-01T17:18:47.834Z,100819.39
2019-03-01T17:21:16.612Z,100819.09
2019-03-01T17:23:49.337Z,100817.02
2019-03-01T17:26:18.737Z,100820.89
2019-03-01T17:28:49.742Z,100821.65
2019-03-01T17:31:18.868Z,100825.29
2019-03-01T17:33:50.076Z,100823.58
2019-03-01T17:36:20.945Z,100828.44
2019-03-01T17:38:51.670Z,100834.04
2019-03-01T17:41:21.980Z,100831.02
2019-03-01T17:43:51.176Z,100835.84
2019-03-01T17:46:20.296Z,100836.27
2019-03-01T17:48:54.175Z,100839.75
2019-03-01T17:51:23.654Z,100834.56
2019-03-01T17:53:55.881Z,100843.59
2019-03-01T17:56:25.119Z,100855.36
2019-03-01T17:58:54.022Z,100855.88
2019-03-01T18:01:24.793Z,100855.88
2019-03-01T18:03:58.071Z,100857.13
2019-03-01T18:06:26.443Z,100865.91
2019-03-01T18:08:57.323Z,100858.02
2019-03-01T18:11:26.485Z,100859.36
2019-03-01T18:13:56.946Z,100868.47
2019-03-01T18:16:30.619Z,100868.14
2019-03-01T18:18:59.653Z,100866.47
2019-03-01T18:21:29.366Z,100865.13
2019-03-01T18:23:58.542Z,100863.32
2019-03-01T18:26:27.289Z,100868.63
2019-03-01T18:28:56.156Z,100873.78
2019-03-01T18:31:28.319Z,100870.80
2019-03-01T18:33:57.412Z,100874.21
2019-03-01T18:36:28.139Z,100877.30
2019-03-01T18:38:57.266Z,100882.51
2019-03-01T18:41:27.437Z,100881.56
2019-03-01T18:43:57.427Z,100885.98
2019-03-01T18:46:26.235Z,100882.88
2019-03-01T18:48:55.134Z,100882.91
2019-03-01T18:51:23.913Z,100885.06
2019-03-01T18:53:56.430Z,100880.28
2019-03-01T18:56:28.613Z,100879.91
2019-03-01T18:58:57.065Z,100884.22
2019-03-01T19:01:25.852Z,100881.26
2019-03-01T19:03:56.355Z,100882.53
2019-03-01T19:06:29.252Z,100881.69
2019-03-01T19:08:58.240Z,100887.87
2019-03-01T19:11:27.029Z,100882.11
2019-03-01T19:13:58.491Z,100884.37
2019-03-01T19:16:28.561Z,100894.86
2019-03-01T19:18:56.996Z,100894.49
2019-03-01T19:21:25.840Z,100896.23
2019-03-01T19:23:54.991Z,100898.39
2019-03-01T19:26:25.504Z,100898.34
2019-03-01T19:28:58.980Z,100903.61
2019-03-01T19:31:28.260Z,100911.94
2019-03-01T19:34:01.637Z,100906.36
2019-03-01T19:36:30.864Z,100902.81
2019-03-01T19:39:00.381Z,100906.90
2019-03-01T19:41:30.723Z,100909.44
2019-03-01T19:43:59.789Z,100912.48
2019-03-01T19:46:28.617Z,100903.79
2019-03-01T19:48:57.923Z,100905.90
2019-03-01T19:51:28.239Z,100910.29
2019-03-01T19:54:01.011Z,100918.64
2019-03-01T19:56:28.487Z,100910.34
2019-03-01T19:59:03.589Z,100912.88
2019-03-01T20:01:32.383Z,100918.16
2019-03-01T20:04:01.705Z,100913.28
2019-03-01T20:06:30.917Z,100914.65
2019-03-01T20:09:01.673Z,100919.86
2019-03-01T20:11:32.219Z,100912.00
2019-03-01T20:14:01.324Z,100911.14
2019-03-01T20:16:30.174Z,100918.19
2019-03-01T20:19:00.634Z,100919.86
2019-03-01T20:21:29.950Z,100915.88
2019-03-01T20:24:01.853Z,100919.84
2019-03-01T20:26:31.095Z,100919.49
2019-03-01T20:29:04.466Z,100921.30
2019-03-01T20:31:36.763Z,100924.69
2019-03-01T20:34:04.053Z,100919.35
2019-03-01T20:36:36.596Z,100916.27
2019-03-01T20:39:06.276Z,100911.42
2019-03-01T20:41:35.933Z,100920.23
2019-03-01T20:44:08.005Z,100926.39
2019-03-01T20:46:43.559Z,100925.56
2019-03-01T20:49:11.255Z,100931.19
2019-03-01T20:51:42.232Z,100931.78
2019-03-01T20:54:11.284Z,100933.86
2019-03-01T20:56:42.524Z,100938.56
2019-03-01T20:59:12.655Z,100931.21
2019-03-01T21:01:42.784Z,100930.81
2019-03-01T21:04:11.970Z,100931.09
2019-03-01T21:06:44.249Z,100934.27
2019-03-01T21:09:13.253Z,100938.59
2019-03-01T21:11:42.028Z,100926.77
2019-03-01T21:14:13.091Z,100939.50
2019-03-01T21:16:45.782Z,100936.88
2019-03-01T21:19:15.085Z,100939.53
2019-03-01T21:21:44.458Z,100938.22
2019-03-01T21:24:16.719Z,100934.69
2019-03-01T21:26:47.958Z,100935.97
2019-03-01T21:29:20.749Z,100942.53
2019-03-01T21:31:52.864Z,100940.70
2019-03-01T21:34:21.728Z,100944.23
2019-03-01T21:36:50.471Z,100944.27
2019-03-01T21:39:20.578Z,100942.95
2019-03-01T21:41:51.362Z,100944.27
2019-03-01T21:44:23.662Z,100941.13
2019-03-01T21:46:54.380Z,100938.11
2019-03-01T21:49:23.784Z,100935.97
2019-03-01T21:51:55.193Z,100935.66
2019-03-01T21:54:24.971Z,100937.83
2019-03-01T21:56:56.805Z,100939.16
2019-03-01T21:59:28.608Z,100938.57
2019-03-01T22:01:59.694Z,100941.13
2019-03-01T22:04:29.683Z,100942.53
2019-03-01T22:07:02.829Z,100949.57
2019-03-01T22:09:31.855Z,100943.09
2019-03-01T22:12:03.745Z,100940.42
2019-03-01T22:14:32.809Z,100934.29
2019-03-01T22:17:10.403Z,100944.84
2019-03-01T22:19:37.948Z,100940.10
2019-03-01T22:22:07.454Z,100952.45
2019-03-01T22:24:36.526Z,100955.04
2019-03-01T22:27:09.924Z,100953.33
2019-03-01T22:29:43.590Z,100960.69
2019-03-01T22:32:14.134Z,100952.81
2019-03-01T22:34:42.911Z,100951.93
2019-03-01T22:37:13.676Z,100951.51
2019-03-01T22:39:42.880Z,100950.14
2019-03-01T22:42:14.280Z,100954.08
2019-03-01T22:44:47.243Z,100947.55
2019-03-01T22:47:18.028Z,100955.81
2019-03-01T22:49:50.644Z,100950.59
2019-03-01T22:52:19.512Z,100953.59
2019-03-01T22:54:48.617Z,100955.39
2019-03-01T22:57:19.341Z,100951.02
2019-03-01T22:59:48.602Z,100956.38
2019-03-01T23:02:23.123Z,100959.39
2019-03-01T23:04:52.296Z,100960.73
2019-03-01T23:07:23.474Z,100958.52
2019-03-01T23:09:56.975Z,100958.95
2019-03-01T23:12:25.800Z,100958.92
2019-03-01T23:14:57.863Z,100963.70
2019-03-01T23:17:27.623Z,100961.91
2019-03-01T23:19:57.634Z,100963.63
2019-03-01T23:22:28.438Z,100964.13
2019-03-01T23:24:58.840Z,100964.13
2019-03-01T23:27:31.872Z,100961.94
2019-03-01T23:30:00.436Z,100958.89
2019-03-01T23:32:34.226Z,100963.70
2019-03-01T23:35:06.335Z,100962.45
2019-03-01T23:37:35.592Z,100965.05
2019-03-01T23:40:05.859Z,100966.30
2019-03-01T23:42:36.781Z,100972.03
2019-03-01T23:45:06.023Z,100965.95
2019-03-01T23:47:38.254Z,100965.59
2019-03-01T23:50:06.936Z,100970.00
2019-03-01T23:52:37.865Z,100967.38
2019-03-01T23:55:06.945Z,100970.82
2019-03-01T23:57:38.067Z,100969.89
